Almeida Garret — CSKB — position and weather

sailwx.info

Track history (hours):
 
Tides and Currents Weather Stations Pressure Air Temp Water Temp Dewpoint Dewpoint Depression Visibility Wind Speed Wind Dir Waves Ship Positions

Almeida Garret

Last reported at 2018-Jun-19 20:42 UTC. Time now 2018-Jun-24 12:52 UTC.
Position N 38°39' W 009°05'.

Length 49 m.

Type: Ship (hazmat cat A). MMSI: 263701340.

Date/timePositionNaut miles runAvg speedWind from/ knotsBaromVisibWave heightAir tempDewpointWater temp
2018-Jun-19 20:42N 38°39' W 009°05'0 0.0
2018-Jun-19 20:30N 38°39' W 009°05'0 0.1
2018-Jun-19 20:00N 38°39' W 009°05'0 0.0
2018-Jun-19 19:30N 38°39' W 009°05'0 0.0
2018-Jun-19 19:00N 38°39' W 009°05'4 8.1
2018-Jun-19 18:31N 38°42' W 009°08'4 8.3
2018-Jun-19 18:00N 38°39' W 009°05'4 7.3
2018-Jun-19 17:30N 38°42' W 009°07'2 4.2
2018-Jun-19 17:00N 38°40' W 009°07'2 3.1
2018-Jun-19 16:29N 38°39' W 009°05'4 8.1
2018-Jun-19 16:00N 38°42' W 009°08'4 8.3
2018-Jun-19 15:31N 38°39' W 009°05'4 7.2
2018-Jun-19 15:00N 38°42' W 009°08'3 6.1
2018-Jun-19 14:31N 38°39' W 009°06'1 0.3
2018-Jun-19 12:21N 38°39' W 009°05'412.0
2018-Jun-19 12:00N 38°42' W 009°08'4 8.3
2018-Jun-19 11:30N 38°39' W 009°05'3 6.9
2018-Jun-19 11:01N 38°42' W 009°08'3 6.0
2018-Jun-19 10:31N 38°39' W 009°05'0 0.8
2018-Jun-19 09:57N 38°39' W 009°05'0 0.0
2018-Jun-19 09:30N 38°39' W 009°05'4 8.0
2018-Jun-19 09:00N 38°42' W 009°08'4 8.3
2018-Jun-19 08:31N 38°39' W 009°05'4 8.2
2018-Jun-19 08:00N 38°42' W 009°08'4 7.9
2018-Jun-19 07:30N 38°39' W 009°05'2 4.2
2018-Jun-19 07:01N 38°40' W 009°07'1 1.5
2018-Jun-19 06:30N 38°40' W 009°07'0 0.7
2018-Jun-19 06:01N 38°40' W 009°06'1 0.1
2018-Jun-18 21:11N 38°39' W 009°05'0 0.0
2018-Jun-18 21:00N 38°39' W 009°05'0 0.2
2018-Jun-18 20:30N 38°39' W 009°05'4 8.3
2018-Jun-18 20:00N 38°42' W 009°08'4 8.3
2018-Jun-18 19:30N 38°39' W 009°05'2 3.9
2018-Jun-18 19:00N 38°40' W 009°07'1 1.7
2018-Jun-18 18:30N 38°41' W 009°08'1 1.8
2018-Jun-18 18:00N 38°40' W 009°07'1 1.4
2018-Jun-18 17:30N 38°40' W 009°06'3 6.2
2018-Jun-18 17:00N 38°42' W 009°08'4 8.4
2018-Jun-18 16:30N 38°39' W 009°05'4 8.3
2018-Jun-18 16:00N 38°42' W 009°08'4 8.1
2018-Jun-18 15:30N 38°39' W 009°05'3 5.2
2018-Jun-18 15:00N 38°41' W 009°08'3 0.6
2018-Jun-18 10:26N 38°39' W 009°05'3 7.6
2018-Jun-18 10:00N 38°41' W 009°08'3 6.1
2018-Jun-18 09:30N 38°39' W 009°05'0 0.8
2018-Jun-18 09:00N 38°39' W 009°05'2 3.3
2018-Jun-18 08:30N 38°40' W 009°07'1 1.6
2018-Jun-18 08:01N 38°39' W 009°06'3 6.8
2018-Jun-18 07:31N 38°42' W 009°08'4 8.3
2018-Jun-18 07:00N 38°39' W 009°05'4 7.6
2018-Jun-18 06:30N 38°42' W 009°08'4 7.2
2018-Jun-18 06:00N 38°39' W 009°05'  
2018-Jun-15 19:53N 38°39' W 009°05'411.3
2018-Jun-15 19:30N 38°42' W 009°08'4 8.3
2018-Jun-15 19:00N 38°39' W 009°05'4 8.3
2018-Jun-15 18:30N 38°42' W 009°08'4 7.1
2018-Jun-15 18:00N 38°39' W 009°06'2 3.4
2018-Jun-15 17:31N 38°40' W 009°07'1 2.0
2018-Jun-15 17:00N 38°41' W 009°08'3 6.3
2018-Jun-15 16:30N 38°39' W 009°05'0 0.0
2018-Jun-15 16:00N 38°39' W 009°05'4 8.3
2018-Jun-15 15:30N 38°42' W 009°08'4 8.3
2018-Jun-15 15:00N 38°39' W 009°05'3 6.4
2018-Jun-15 14:30N 38°41' W 009°08'2 4.6
2018-Jun-15 14:01N 38°39' W 009°06'2 4.6
2018-Jun-15 13:30N 38°41' W 009°08'3 5.2
2018-Jun-15 13:00N 38°39' W 009°06'3 5.8
2018-Jun-15 12:30N 38°42' W 009°08'3 6.2
2018-Jun-15 12:00N 38°39' W 009°05'3 6.3
2018-Jun-15 11:30N 38°42' W 009°08'3 5.8
2018-Jun-15 11:01N 38°39' W 009°06'3 5.9
2018-Jun-15 10:30N 38°42' W 009°08'3 6.2
2018-Jun-15 10:00N 38°39' W 009°05'1 1.2
2018-Jun-15 09:30N 38°39' W 009°05'0 0.5
2018-Jun-15 09:00N 38°39' W 009°05'4 8.1
2018-Jun-15 08:30N 38°42' W 009°08'4 8.5
2018-Jun-15 08:00N 38°39' W 009°05'4 7.3
2018-Jun-15 07:30N 38°42' W 009°08'2 3.6
2018-Jun-15 07:01N 38°40' W 009°07'1 2.5
2018-Jun-15 06:31N 38°39' W 009°06'1 1.5
2018-Jun-15 06:00N 38°39' W 009°05'0 0.0
2018-Jun-15 05:30N 38°39' W 009°05'0 0.0
2018-Jun-14 18:57N 38°39' W 009°05'4 9.2
2018-Jun-14 18:30N 38°42' W 009°08'4 8.3
2018-Jun-14 18:00N 38°39' W 009°05'4 8.0
2018-Jun-14 17:30N 38°42' W 009°08'2 4.7
2018-Jun-14 17:00N 38°40' W 009°07'1 1.5
2018-Jun-14 16:31N 38°40' W 009°06'3 6.2
2018-Jun-14 16:00N 38°42' W 009°08'4 8.3
2018-Jun-14 15:30N 38°39' W 009°05'3 6.5
2018-Jun-14 15:00N 38°41' W 009°08'3 5.5
2018-Jun-14 14:31N 38°39' W 009°06'1 1.4
2018-Jun-14 14:00N 38°39' W 009°05'0 0.0
2018-Jun-14 10:21N 38°39' W 009°05'3 9.7
2018-Jun-14 10:00N 38°41' W 009°08'3 5.9
2018-Jun-14 09:30N 38°39' W 009°05'3 5.9
2018-Jun-14 09:00N 38°41' W 009°08'3 5.4
2018-Jun-14 08:30N 38°39' W 009°06'2 3.3
2018-Jun-14 08:01N 38°40' W 009°07'2 3.2
2018-Jun-14 07:31N 38°39' W 009°06'4 7.0
2018-Jun-14 07:00N 38°42' W 009°08'4 8.3
2018-Jun-14 06:30N 38°39' W 009°05'4 8.3
2018-Jun-14 06:01N 38°42' W 009°08'4 8.3
2018-Jun-14 05:31N 38°39' W 009°05'4 7.2
2018-Jun-14 05:01N 38°42' W 009°08'4 7.3
2018-Jun-14 04:30N 38°39' W 009°05'0 0.0
2018-Jun-13 20:49N 38°39' W 009°05'310.9
2018-Jun-13 20:31N 38°41' W 009°08'2 4.7
2018-Jun-13 20:00N 38°40' W 009°06'1 2.2
2018-Jun-13 19:30N 38°39' W 009°05'3 6.1
2018-Jun-13 19:00N 38°41' W 009°08'2 3.5
2018-Jun-13 18:31N 38°40' W 009°06'2 3.9
2018-Jun-13 18:00N 38°41' W 009°08'2 4.8
2018-Jun-13 17:30N 38°39' W 009°06'3 5.5
2018-Jun-13 17:00N 38°42' W 009°08'3 5.0
2018-Jun-13 16:30N 38°40' W 009°06'2 4.7
2018-Jun-13 16:00N 38°41' W 009°08'3 5.1
2018-Jun-13 15:30N 38°39' W 009°06'3 5.2
2018-Jun-13 15:01N 38°41' W 009°08'2 4.6
2018-Jun-13 14:30N 38°40' W 009°06'2 4.2
2018-Jun-13 14:00N 38°41' W 009°08'2 4.7
2018-Jun-13 13:30N 38°39' W 009°06'3 5.4
2018-Jun-13 13:01N 38°41' W 009°08'3 6.0
2018-Jun-13 12:30N 38°39' W 009°05'0 0.8
2018-Jun-13 12:00N 38°39' W 009°05'0 0.0
2018-Jun-13 11:30N 38°39' W 009°05'0 0.0
2018-Jun-13 10:58N 38°39' W 009°05'0 0.0
2018-Jun-13 10:30N 38°39' W 009°05'0 0.0
2018-Jun-13 10:00N 38°39' W 009°05'0 0.0
2018-Jun-13 09:29N 38°39' W 009°05'3 7.1
2018-Jun-13 09:00N 38°42' W 009°08'3 6.4
2018-Jun-13 08:30N 38°39' W 009°05'3 6.0
2018-Jun-13 08:00N 38°41' W 009°08'3 5.1
2018-Jun-13 07:30N 38°39' W 009°06'3 5.1
2018-Jun-13 07:01N 38°41' W 009°08'3 5.2
2018-Jun-13 06:31N 38°39' W 009°06'0 0.8
2018-Jun-13 06:00N 38°40' W 009°06'1 1.5
2018-Jun-13 05:31N 38°40' W 009°07'1 1.7
2018-Jun-13 05:00N 38°40' W 009°06'2 4.5
2018-Jun-13 04:30N 38°41' W 009°08'3 6.5
2018-Jun-13 04:00N 38°39' W 009°05'0 0.0
2018-Jun-13 03:30N 38°39' W 009°05'0 0.0
2018-Jun-13 03:00N 38°39' W 009°05'0 0.0
2018-Jun-13 02:30N 38°39' W 009°05'0 0.0
2018-Jun-13 02:00N 38°39' W 009°05'0 0.0
2018-Jun-13 01:30N 38°39' W 009°05'4 8.3
2018-Jun-13 01:01N 38°42' W 009°08'4 8.3
2018-Jun-13 00:30N 38°39' W 009°05'4 8.3
2018-Jun-13 00:00N 38°42' W 009°08'4 8.4
2018-Jun-12 23:31N 38°39' W 009°05'4 8.2
2018-Jun-12 23:00N 38°42' W 009°08'4 8.3
2018-Jun-12 22:30N 38°39' W 009°05'3 6.8
2018-Jun-12 22:00N 38°41' W 009°08'3 6.1
2018-Jun-12 21:30N 38°39' W 009°05'3 6.3
2018-Jun-12 21:00N 38°42' W 009°08'3 5.9
2018-Jun-12 20:30N 38°39' W 009°06'1 1.5
2018-Jun-12 20:00N 38°39' W 009°05'0 0.0
2018-Jun-12 19:30N 38°39' W 009°05'4 8.4
2018-Jun-12 19:00N 38°42' W 009°08'4 8.3
2018-Jun-12 18:31N 38°39' W 009°05'4 7.9
2018-Jun-12 18:01N 38°42' W 009°08'2 4.6
2018-Jun-12 17:30N 38°40' W 009°07'1 2.1
2018-Jun-12 17:00N 38°39' W 009°06'3 6.9
2018-Jun-12 16:31N 38°42' W 009°08'4 8.4
2018-Jun-12 16:00N 38°39' W 009°05'0 0.0
2018-Jun-12 15:30N 38°39' W 009°05'0 0.0
2018-Jun-12 12:35N 38°39' W 009°05'0 0.1
2018-Jun-12 12:30N 38°39' W 009°05'4 8.4
2018-Jun-12 12:00N 38°42' W 009°08'4 8.2
2018-Jun-12 11:30N 38°39' W 009°05'4 7.9
2018-Jun-12 11:00N 38°42' W 009°08'4 7.1
2018-Jun-12 10:30N 38°39' W 009°05'0 1.0
2018-Jun-12 10:00N 38°39' W 009°05'0 0.1
2018-Jun-12 09:30N 38°39' W 009°05'4 8.3
2018-Jun-12 09:00N 38°42' W 009°08'4 8.4
2018-Jun-12 08:30N 38°39' W 009°05'4 8.3
2018-Jun-12 08:00N 38°42' W 009°08'4 6.8
2018-Jun-12 07:29N 38°39' W 009°06'1 3.0
2018-Jun-12 07:01N 38°40' W 009°07'0 0.1
2018-Jun-12 06:31N 38°40' W 009°07'1 2.6
2018-Jun-12 06:00N 38°39' W 009°06'1 1.5
2018-Jun-12 05:29N 38°39' W 009°05'0 0.0
2018-Jun-11 20:17N 38°39' W 009°05'2 6.5
2018-Jun-11 20:00N 38°40' W 009°07'1 2.4
2018-Jun-11 19:30N 38°41' W 009°08'3 5.9
2018-Jun-11 19:00N 38°39' W 009°05'2 4.7
2018-Jun-11 18:31N 38°40' W 009°07'1 1.9
2018-Jun-11 18:01N 38°40' W 009°06'3 5.9
2018-Jun-11 17:30N 38°42' W 009°08'4 8.3
2018-Jun-11 17:00N 38°39' W 009°05'4 8.0
2018-Jun-11 16:31N 38°42' W 009°08'2 4.4
2018-Jun-11 16:00N 38°40' W 009°07'1 1.3
2018-Jun-11 15:31N 38°41' W 009°07'3 5.2
2018-Jun-11 15:00N 38°39' W 009°05'0 0.0
2018-Jun-11 14:30N 38°39' W 009°05'3 6.6
2018-Jun-11 14:00N 38°41' W 009°08'3 5.0
2018-Jun-11 13:30N 38°39' W 009°06'3 5.5
2018-Jun-11 13:01N 38°42' W 009°08'3 5.6
2018-Jun-11 12:29N 38°39' W 009°06'1 1.5
2018-Jun-11 12:00N 38°39' W 009°05'0 0.1
2018-Jun-11 11:30N 38°39' W 009°05'0 0.0
2018-Jun-11 11:00N 38°39' W 009°05'0 0.0
2018-Jun-11 10:30N 38°39' W 009°05'0 0.1
2018-Jun-11 09:50N 38°39' W 009°05'411.2
2018-Jun-11 09:30N 38°42' W 009°08'3 6.4
2018-Jun-11 09:01N 38°39' W 009°06'1 1.5
2018-Jun-11 08:30N 38°39' W 009°05'4 7.8
2018-Jun-11 08:01N 38°42' W 009°08'2 4.5
2018-Jun-11 07:30N 38°40' W 009°07'1 1.8
2018-Jun-11 07:00N 38°39' W 009°06'3 6.7
2018-Jun-11 06:30N 38°42' W 009°08'4 8.3
2018-Jun-11 06:01N 38°39' W 009°05'4 7.7
2018-Jun-11 05:31N 38°42' W 009°08'3 6.5
2018-Jun-11 05:00N 38°39' W 009°06'3 6.2
2018-Jun-11 04:30N 38°42' W 009°08'4 7.1
2018-Jun-11 04:00N 38°39' W 009°05'0 0.0
2018-Jun-11 01:24N 38°39' W 009°05'410.8
2018-Jun-11 01:00N 38°42' W 009°08'4 8.3
2018-Jun-11 00:30N 38°39' W 009°05'4 8.4
2018-Jun-11 00:00N 38°42' W 009°08'4 8.3
2018-Jun-10 23:30N 38°39' W 009°05'4 8.1
2018-Jun-10 22:59N 38°42' W 009°08'4 8.6
2018-Jun-10 22:31N 38°39' W 009°05'3 6.6
2018-Jun-10 22:00N 38°41' W 009°08'3 5.2
2018-Jun-10 21:30N 38°39' W 009°06'3 5.3
2018-Jun-10 21:00N 38°41' W 009°08'3 5.2
2018-Jun-10 20:30N 38°39' W 009°06'3 5.7
2018-Jun-10 20:01N 38°42' W 009°08'3 5.6
2018-Jun-10 19:30N 38°39' W 009°06'1 1.7
2018-Jun-10 19:00N 38°39' W 009°05'3 6.8
2018-Jun-10 18:30N 38°41' W 009°08'2 4.3
2018-Jun-10 18:00N 38°40' W 009°06'2 4.3
2018-Jun-10 17:30N 38°41' W 009°08'3 5.3
2018-Jun-10 17:00N 38°39' W 009°06'3 5.2
2018-Jun-10 16:30N 38°41' W 009°08'2 4.9
2018-Jun-10 16:00N 38°39' W 009°06'3 5.6
2018-Jun-10 15:31N 38°42' W 009°08'3 5.3
2018-Jun-10 15:00N 38°39' W 009°06'2 5.0
2018-Jun-10 14:31N 38°41' W 009°08'3 3.4
2018-Jun-10 13:30N 38°39' W 009°05'0 0.0
2018-Jun-10 13:00N 38°39' W 009°05'0 0.0
2018-Jun-10 12:30N 38°39' W 009°05'3 6.8
2018-Jun-10 12:00N 38°41' W 009°08'3 5.3
2018-Jun-10 11:30N 38°39' W 009°06'3 5.4
2018-Jun-10 11:01N 38°41' W 009°08'3 5.5
2018-Jun-10 10:30N 38°39' W 009°06'1 1.3
2018-Jun-10 10:00N 38°39' W 009°05'  
Track history (hours):
 
Tides and Currents Weather Stations Pressure Air Temp Water Temp Dewpoint Dewpoint Depression Visibility Wind Speed Wind Dir Waves Ship Positions

Almeida Garret

Last reported at 2018-Jun-19 20:42 UTC. Time now 2018-Jun-24 12:52 UTC.
Position N 38°39' W 009°05'.

Length 49 m.

Type: Ship (hazmat cat A). MMSI: 263701340.

Date/timePositionNaut miles runAvg speedWind from/ knotsBaromVisibWave heightAir tempDewpointWater temp
2018-Jun-19 20:42N 38°39' W 009°05'0 0.0
2018-Jun-19 20:30N 38°39' W 009°05'0 0.1
2018-Jun-19 20:00N 38°39' W 009°05'0 0.0
2018-Jun-19 19:30N 38°39' W 009°05'0 0.0
2018-Jun-19 19:00N 38°39' W 009°05'4 8.1
2018-Jun-19 18:31N 38°42' W 009°08'4 8.3
2018-Jun-19 18:00N 38°39' W 009°05'4 7.3
2018-Jun-19 17:30N 38°42' W 009°07'2 4.2
2018-Jun-19 17:00N 38°40' W 009°07'2 3.1
2018-Jun-19 16:29N 38°39' W 009°05'4 8.1
2018-Jun-19 16:00N 38°42' W 009°08'4 8.3
2018-Jun-19 15:31N 38°39' W 009°05'4 7.2
2018-Jun-19 15:00N 38°42' W 009°08'3 6.1
2018-Jun-19 14:31N 38°39' W 009°06'1 0.3
2018-Jun-19 12:21N 38°39' W 009°05'412.0
2018-Jun-19 12:00N 38°42' W 009°08'4 8.3
2018-Jun-19 11:30N 38°39' W 009°05'3 6.9
2018-Jun-19 11:01N 38°42' W 009°08'3 6.0
2018-Jun-19 10:31N 38°39' W 009°05'0 0.8
2018-Jun-19 09:57N 38°39' W 009°05'0 0.0
2018-Jun-19 09:30N 38°39' W 009°05'4 8.0
2018-Jun-19 09:00N 38°42' W 009°08'4 8.3
2018-Jun-19 08:31N 38°39' W 009°05'4 8.2
2018-Jun-19 08:00N 38°42' W 009°08'4 7.9
2018-Jun-19 07:30N 38°39' W 009°05'2 4.2
2018-Jun-19 07:01N 38°40' W 009°07'1 1.5
2018-Jun-19 06:30N 38°40' W 009°07'0 0.7
2018-Jun-19 06:01N 38°40' W 009°06'1 0.1
2018-Jun-18 21:11N 38°39' W 009°05'0 0.0
2018-Jun-18 21:00N 38°39' W 009°05'0 0.2
2018-Jun-18 20:30N 38°39' W 009°05'4 8.3
2018-Jun-18 20:00N 38°42' W 009°08'4 8.3
2018-Jun-18 19:30N 38°39' W 009°05'2 3.9
2018-Jun-18 19:00N 38°40' W 009°07'1 1.7
2018-Jun-18 18:30N 38°41' W 009°08'1 1.8
2018-Jun-18 18:00N 38°40' W 009°07'1 1.4
2018-Jun-18 17:30N 38°40' W 009°06'3 6.2
2018-Jun-18 17:00N 38°42' W 009°08'4 8.4
2018-Jun-18 16:30N 38°39' W 009°05'4 8.3
2018-Jun-18 16:00N 38°42' W 009°08'4 8.1
2018-Jun-18 15:30N 38°39' W 009°05'3 5.2
2018-Jun-18 15:00N 38°41' W 009°08'3 0.6
2018-Jun-18 10:26N 38°39' W 009°05'3 7.6
2018-Jun-18 10:00N 38°41' W 009°08'3 6.1
2018-Jun-18 09:30N 38°39' W 009°05'0 0.8
2018-Jun-18 09:00N 38°39' W 009°05'2 3.3
2018-Jun-18 08:30N 38°40' W 009°07'1 1.6
2018-Jun-18 08:01N 38°39' W 009°06'3 6.8
2018-Jun-18 07:31N 38°42' W 009°08'4 8.3
2018-Jun-18 07:00N 38°39' W 009°05'4 7.6
2018-Jun-18 06:30N 38°42' W 009°08'4 7.2
2018-Jun-18 06:00N 38°39' W 009°05'  
2018-Jun-15 19:53N 38°39' W 009°05'411.3
2018-Jun-15 19:30N 38°42' W 009°08'4 8.3
2018-Jun-15 19:00N 38°39' W 009°05'4 8.3
2018-Jun-15 18:30N 38°42' W 009°08'4 7.1
2018-Jun-15 18:00N 38°39' W 009°06'2 3.4
2018-Jun-15 17:31N 38°40' W 009°07'1 2.0
2018-Jun-15 17:00N 38°41' W 009°08'3 6.3
2018-Jun-15 16:30N 38°39' W 009°05'0 0.0
2018-Jun-15 16:00N 38°39' W 009°05'4 8.3
2018-Jun-15 15:30N 38°42' W 009°08'4 8.3
2018-Jun-15 15:00N 38°39' W 009°05'3 6.4
2018-Jun-15 14:30N 38°41' W 009°08'2 4.6
2018-Jun-15 14:01N 38°39' W 009°06'2 4.6
2018-Jun-15 13:30N 38°41' W 009°08'3 5.2
2018-Jun-15 13:00N 38°39' W 009°06'3 5.8
2018-Jun-15 12:30N 38°42' W 009°08'3 6.2
2018-Jun-15 12:00N 38°39' W 009°05'3 6.3
2018-Jun-15 11:30N 38°42' W 009°08'3 5.8
2018-Jun-15 11:01N 38°39' W 009°06'3 5.9
2018-Jun-15 10:30N 38°42' W 009°08'3 6.2
2018-Jun-15 10:00N 38°39' W 009°05'1 1.2
2018-Jun-15 09:30N 38°39' W 009°05'0 0.5
2018-Jun-15 09:00N 38°39' W 009°05'4 8.1
2018-Jun-15 08:30N 38°42' W 009°08'4 8.5
2018-Jun-15 08:00N 38°39' W 009°05'4 7.3
2018-Jun-15 07:30N 38°42' W 009°08'2 3.6
2018-Jun-15 07:01N 38°40' W 009°07'1 2.5
2018-Jun-15 06:31N 38°39' W 009°06'1 1.5
2018-Jun-15 06:00N 38°39' W 009°05'0 0.0
2018-Jun-15 05:30N 38°39' W 009°05'0 0.0
2018-Jun-14 18:57N 38°39' W 009°05'4 9.2
2018-Jun-14 18:30N 38°42' W 009°08'4 8.3
2018-Jun-14 18:00N 38°39' W 009°05'4 8.0
2018-Jun-14 17:30N 38°42' W 009°08'2 4.7
2018-Jun-14 17:00N 38°40' W 009°07'1 1.5
2018-Jun-14 16:31N 38°40' W 009°06'3 6.2
2018-Jun-14 16:00N 38°42' W 009°08'4 8.3
2018-Jun-14 15:30N 38°39' W 009°05'3 6.5
2018-Jun-14 15:00N 38°41' W 009°08'3 5.5
2018-Jun-14 14:31N 38°39' W 009°06'1 1.4
2018-Jun-14 14:00N 38°39' W 009°05'0 0.0
2018-Jun-14 10:21N 38°39' W 009°05'3 9.7
2018-Jun-14 10:00N 38°41' W 009°08'3 5.9
2018-Jun-14 09:30N 38°39' W 009°05'3 5.9
2018-Jun-14 09:00N 38°41' W 009°08'3 5.4
2018-Jun-14 08:30N 38°39' W 009°06'2 3.3
2018-Jun-14 08:01N 38°40' W 009°07'2 3.2
2018-Jun-14 07:31N 38°39' W 009°06'4 7.0
2018-Jun-14 07:00N 38°42' W 009°08'4 8.3
2018-Jun-14 06:30N 38°39' W 009°05'4 8.3
2018-Jun-14 06:01N 38°42' W 009°08'4 8.3
2018-Jun-14 05:31N 38°39' W 009°05'4 7.2
2018-Jun-14 05:01N 38°42' W 009°08'4 7.3
2018-Jun-14 04:30N 38°39' W 009°05'0 0.0
2018-Jun-13 20:49N 38°39' W 009°05'310.9
2018-Jun-13 20:31N 38°41' W 009°08'2 4.7
2018-Jun-13 20:00N 38°40' W 009°06'1 2.2
2018-Jun-13 19:30N 38°39' W 009°05'3 6.1
2018-Jun-13 19:00N 38°41' W 009°08'2 3.5
2018-Jun-13 18:31N 38°40' W 009°06'2 3.9
2018-Jun-13 18:00N 38°41' W 009°08'2 4.8
2018-Jun-13 17:30N 38°39' W 009°06'3 5.5
2018-Jun-13 17:00N 38°42' W 009°08'3 5.0
2018-Jun-13 16:30N 38°40' W 009°06'2 4.7
2018-Jun-13 16:00N 38°41' W 009°08'3 5.1
2018-Jun-13 15:30N 38°39' W 009°06'3 5.2
2018-Jun-13 15:01N 38°41' W 009°08'2 4.6
2018-Jun-13 14:30N 38°40' W 009°06'2 4.2
2018-Jun-13 14:00N 38°41' W 009°08'2 4.7
2018-Jun-13 13:30N 38°39' W 009°06'3 5.4
2018-Jun-13 13:01N 38°41' W 009°08'3 6.0
2018-Jun-13 12:30N 38°39' W 009°05'0 0.8
2018-Jun-13 12:00N 38°39' W 009°05'0 0.0
2018-Jun-13 11:30N 38°39' W 009°05'0 0.0
2018-Jun-13 10:58N 38°39' W 009°05'0 0.0
2018-Jun-13 10:30N 38°39' W 009°05'0 0.0
2018-Jun-13 10:00N 38°39' W 009°05'0 0.0
2018-Jun-13 09:29N 38°39' W 009°05'3 7.1
2018-Jun-13 09:00N 38°42' W 009°08'3 6.4
2018-Jun-13 08:30N 38°39' W 009°05'3 6.0
2018-Jun-13 08:00N 38°41' W 009°08'3 5.1
2018-Jun-13 07:30N 38°39' W 009°06'3 5.1
2018-Jun-13 07:01N 38°41' W 009°08'3 5.2
2018-Jun-13 06:31N 38°39' W 009°06'0 0.8
2018-Jun-13 06:00N 38°40' W 009°06'1 1.5
2018-Jun-13 05:31N 38°40' W 009°07'1 1.7
2018-Jun-13 05:00N 38°40' W 009°06'2 4.5
2018-Jun-13 04:30N 38°41' W 009°08'3 6.5
2018-Jun-13 04:00N 38°39' W 009°05'0 0.0
2018-Jun-13 03:30N 38°39' W 009°05'0 0.0
2018-Jun-13 03:00N 38°39' W 009°05'0 0.0
2018-Jun-13 02:30N 38°39' W 009°05'0 0.0
2018-Jun-13 02:00N 38°39' W 009°05'0 0.0
2018-Jun-13 01:30N 38°39' W 009°05'4 8.3
2018-Jun-13 01:01N 38°42' W 009°08'4 8.3
2018-Jun-13 00:30N 38°39' W 009°05'4 8.3
2018-Jun-13 00:00N 38°42' W 009°08'4 8.4
2018-Jun-12 23:31N 38°39' W 009°05'4 8.2
2018-Jun-12 23:00N 38°42' W 009°08'4 8.3
2018-Jun-12 22:30N 38°39' W 009°05'3 6.8
2018-Jun-12 22:00N 38°41' W 009°08'3 6.1
2018-Jun-12 21:30N 38°39' W 009°05'3 6.3
2018-Jun-12 21:00N 38°42' W 009°08'3 5.9
2018-Jun-12 20:30N 38°39' W 009°06'1 1.5
2018-Jun-12 20:00N 38°39' W 009°05'0 0.0
2018-Jun-12 19:30N 38°39' W 009°05'4 8.4
2018-Jun-12 19:00N 38°42' W 009°08'4 8.3
2018-Jun-12 18:31N 38°39' W 009°05'4 7.9
2018-Jun-12 18:01N 38°42' W 009°08'2 4.6
2018-Jun-12 17:30N 38°40' W 009°07'1 2.1
2018-Jun-12 17:00N 38°39' W 009°06'3 6.9
2018-Jun-12 16:31N 38°42' W 009°08'4 8.4
2018-Jun-12 16:00N 38°39' W 009°05'0 0.0
2018-Jun-12 15:30N 38°39' W 009°05'0 0.0
2018-Jun-12 12:35N 38°39' W 009°05'0 0.1
2018-Jun-12 12:30N 38°39' W 009°05'4 8.4
2018-Jun-12 12:00N 38°42' W 009°08'4 8.2
2018-Jun-12 11:30N 38°39' W 009°05'4 7.9
2018-Jun-12 11:00N 38°42' W 009°08'4 7.1
2018-Jun-12 10:30N 38°39' W 009°05'0 1.0
2018-Jun-12 10:00N 38°39' W 009°05'0 0.1
2018-Jun-12 09:30N 38°39' W 009°05'4 8.3
2018-Jun-12 09:00N 38°42' W 009°08'4 8.4
2018-Jun-12 08:30N 38°39' W 009°05'4 8.3
2018-Jun-12 08:00N 38°42' W 009°08'4 6.8
2018-Jun-12 07:29N 38°39' W 009°06'1 3.0
2018-Jun-12 07:01N 38°40' W 009°07'0 0.1
2018-Jun-12 06:31N 38°40' W 009°07'1 2.6
2018-Jun-12 06:00N 38°39' W 009°06'1 1.5
2018-Jun-12 05:29N 38°39' W 009°05'0 0.0
2018-Jun-11 20:17N 38°39' W 009°05'2 6.5
2018-Jun-11 20:00N 38°40' W 009°07'1 2.4
2018-Jun-11 19:30N 38°41' W 009°08'3 5.9
2018-Jun-11 19:00N 38°39' W 009°05'2 4.7
2018-Jun-11 18:31N 38°40' W 009°07'1 1.9
2018-Jun-11 18:01N 38°40' W 009°06'3 5.9
2018-Jun-11 17:30N 38°42' W 009°08'4 8.3
2018-Jun-11 17:00N 38°39' W 009°05'4 8.0
2018-Jun-11 16:31N 38°42' W 009°08'2 4.4
2018-Jun-11 16:00N 38°40' W 009°07'1 1.3
2018-Jun-11 15:31N 38°41' W 009°07'3 5.2
2018-Jun-11 15:00N 38°39' W 009°05'0 0.0
2018-Jun-11 14:30N 38°39' W 009°05'3 6.6
2018-Jun-11 14:00N 38°41' W 009°08'3 5.0
2018-Jun-11 13:30N 38°39' W 009°06'3 5.5
2018-Jun-11 13:01N 38°42' W 009°08'3 5.6
2018-Jun-11 12:29N 38°39' W 009°06'1 1.5
2018-Jun-11 12:00N 38°39' W 009°05'0 0.1
2018-Jun-11 11:30N 38°39' W 009°05'0 0.0
2018-Jun-11 11:00N 38°39' W 009°05'0 0.0
2018-Jun-11 10:30N 38°39' W 009°05'0 0.1
2018-Jun-11 09:50N 38°39' W 009°05'411.2
2018-Jun-11 09:30N 38°42' W 009°08'3 6.4
2018-Jun-11 09:01N 38°39' W 009°06'1 1.5
2018-Jun-11 08:30N 38°39' W 009°05'4 7.8
2018-Jun-11 08:01N 38°42' W 009°08'2 4.5
2018-Jun-11 07:30N 38°40' W 009°07'1 1.8
2018-Jun-11 07:00N 38°39' W 009°06'3 6.7
2018-Jun-11 06:30N 38°42' W 009°08'4 8.3
2018-Jun-11 06:01N 38°39' W 009°05'4 7.7
2018-Jun-11 05:31N 38°42' W 009°08'3 6.5
2018-Jun-11 05:00N 38°39' W 009°06'3 6.2
2018-Jun-11 04:30N 38°42' W 009°08'4 7.1
2018-Jun-11 04:00N 38°39' W 009°05'0 0.0
2018-Jun-11 01:24N 38°39' W 009°05'410.8
2018-Jun-11 01:00N 38°42' W 009°08'4 8.3
2018-Jun-11 00:30N 38°39' W 009°05'4 8.4
2018-Jun-11 00:00N 38°42' W 009°08'4 8.3
2018-Jun-10 23:30N 38°39' W 009°05'4 8.1
2018-Jun-10 22:59N 38°42' W 009°08'4 8.6
2018-Jun-10 22:31N 38°39' W 009°05'3 6.6
2018-Jun-10 22:00N 38°41' W 009°08'3 5.2
2018-Jun-10 21:30N 38°39' W 009°06'3 5.3
2018-Jun-10 21:00N 38°41' W 009°08'3 5.2
2018-Jun-10 20:30N 38°39' W 009°06'3 5.7
2018-Jun-10 20:01N 38°42' W 009°08'3 5.6
2018-Jun-10 19:30N 38°39' W 009°06'1 1.7
2018-Jun-10 19:00N 38°39' W 009°05'3 6.8
2018-Jun-10 18:30N 38°41' W 009°08'2 4.3
2018-Jun-10 18:00N 38°40' W 009°06'2 4.3
2018-Jun-10 17:30N 38°41' W 009°08'3 5.3
2018-Jun-10 17:00N 38°39' W 009°06'3 5.2
2018-Jun-10 16:30N 38°41' W 009°08'2 4.9
2018-Jun-10 16:00N 38°39' W 009°06'3 5.6
2018-Jun-10 15:31N 38°42' W 009°08'3 5.3
2018-Jun-10 15:00N 38°39' W 009°06'2 5.0
2018-Jun-10 14:31N 38°41' W 009°08'3 3.4
2018-Jun-10 13:30N 38°39' W 009°05'0 0.0
2018-Jun-10 13:00N 38°39' W 009°05'0 0.0
2018-Jun-10 12:30N 38°39' W 009°05'3 6.8
2018-Jun-10 12:00N 38°41' W 009°08'3 5.3
2018-Jun-10 11:30N 38°39' W 009°06'3 5.4
2018-Jun-10 11:01N 38°41' W 009°08'3 5.5
2018-Jun-10 10:30N 38°39' W 009°06'1 1.3
2018-Jun-10 10:00N 38°39' W 009°05'  

Dump ship's entire track history